Time;durP1;ratioP1;P1;durP2;ratioP2;P2;SDS_P1;SDS_P2;PMS_P1;PMS_P2;Temp;Humidity;BMP_temperature;BMP_pressure;BME280_temperature;BME280_humidity;BME280_pressure;Samples;Min_cycle;Max_cycle;Signal;HPM_P1;HPM_P2
2022/08/22 00:03:50;;;;;;;11.27;3.75;;;;;;;17.91;66.12;100163.72;20737947;28;20116;-68
2022/08/22 00:13:52;;;;;;;6.95;3.55;;;;;;;18.06;66.27;100164.78;20738326;28;20049;-68
2022/08/22 00:24:02;;;;;;;10.55;4.18;;;;;;;17.91;66.78;100158.44;20737725;28;20507;-68
2022/08/22 00:34:03;;;;;;;7.68;3.90;;;;;;;17.87;66.92;100153.34;20736037;28;20052;-70
2022/08/22 00:44:04;;;;;;;7.07;2.95;;;;;;;17.97;66.14;100156.44;20736234;28;20418;-69
2022/08/22 00:54:06;;;;;;;7.25;3.38;;;;;;;18.16;63.94;100150.13;20736009;28;20053;-70
2022/08/22 01:04:18;;;;;;;8.50;3.42;;;;;;;18.14;65.00;100148.47;20735157;28;20069;-69
2022/08/22 01:14:19;;;;;;;4.95;2.75;;;;;;;18.14;63.69;100146.69;20736118;28;20058;-69
2022/08/22 01:24:34;;;;;;;7.10;2.85;;;;;;;18.22;62.98;100134.84;20735258;28;20062;-70
2022/08/22 01:34:38;;;;;;;5.68;2.80;;;;;;;18.17;63.74;100138.59;20733798;28;20080;-69
2022/08/22 01:44:40;;;;;;;6.65;2.92;;;;;;;18.10;63.29;100133.66;20736429;28;20049;-69
2022/08/22 01:54:41;;;;;;;5.78;2.65;;;;;;;18.14;61.65;100129.94;20749476;28;20072;-69
2022/08/22 02:04:43;;;;;;;5.40;2.40;;;;;;;18.26;61.09;100126.66;20748102;28;20060;-68
2022/08/22 02:14:44;;;;;;;7.35;3.10;;;;;;;18.33;60.18;100135.13;20747672;28;20410;-68
2022/08/22 02:24:45;;;;;;;7.47;3.05;;;;;;;18.16;62.62;100126.28;20746601;28;20046;-68
2022/08/22 02:34:47;;;;;;;7.80;3.25;;;;;;;18.07;64.36;100129.41;20745534;28;20069;-68
2022/08/22 02:44:48;;;;;;;8.10;3.33;;;;;;;17.81;66.01;100127.19;20744969;28;20404;-69
2022/08/22 02:54:50;;;;;;;7.38;3.15;;;;;;;17.56;68.01;100120.44;20743692;28;20061;-69
2022/08/22 03:04:51;;;;;;;8.60;3.10;;;;;;;17.32;70.88;100133.06;20742740;28;20046;-68
2022/08/22 03:14:53;;;;;;;7.65;3.63;;;;;;;17.21;77.19;100130.06;20743018;28;20053;-69
2022/08/22 03:24:54;;;;;;;8.57;3.17;;;;;;;16.99;75.03;100135.50;20742357;28;20479;-68
2022/08/22 03:34:56;;;;;;;8.05;3.30;;;;;;;16.70;75.97;100138.59;20741086;28;20056;-69
2022/08/22 03:44:58;;;;;;;6.35;3.25;;;;;;;16.33;79.01;100137.56;20739772;28;20053;-69
2022/08/22 03:54:59;;;;;;;8.40;3.58;;;;;;;16.12;83.70;100134.94;20739982;28;20053;-68
2022/08/22 04:05:01;;;;;;;7.07;3.30;;;;;;;15.98;87.67;100137.31;20739233;28;20062;-68
2022/08/22 04:15:02;;;;;;;9.70;3.42;;;;;;;16.05;87.98;100138.78;20738920;28;20057;-68
2022/08/22 04:25:04;;;;;;;8.45;3.42;;;;;;;16.10;84.11;100152.66;20736523;28;20084;-68
2022/08/22 04:35:09;;;;;;;11.83;3.90;;;;;;;15.97;87.27;100154.09;20736865;28;20146;-68
2022/08/22 04:45:11;;;;;;;7.35;3.50;;;;;;;15.98;85.11;100161.06;20736340;28;20057;-68
2022/08/22 04:55:12;;;;;;;8.18;4.47;;;;;;;16.09;85.85;100153.53;20735998;28;20053;-68
2022/08/22 05:05:13;;;;;;;9.43;3.65;;;;;;;16.41;82.93;100161.88;20734930;28;20054;-68
2022/08/22 05:15:15;;;;;;;8.27;3.90;;;;;;;16.58;82.06;100161.16;20736220;28;20076;-68
2022/08/22 05:25:23;;;;;;;11.48;4.45;;;;;;;16.49;83.65;100161.56;20746216;28;20123;-68
2022/08/22 05:35:24;;;;;;;11.15;4.45;;;;;;;16.76;80.39;100164.78;20750043;28;20049;-68
2022/08/22 05:45:26;;;;;;;10.38;4.10;;;;;;;17.12;77.15;100164.91;20749791;28;20053;-69
2022/08/22 05:55:27;;;;;;;8.07;3.95;;;;;;;17.26;76.14;100169.56;20748572;28;20049;-68
2022/08/22 06:05:29;;;;;;;9.02;4.32;;;;;;;17.47;72.98;100179.09;20747713;28;20545;-68
2022/08/22 06:15:30;;;;;;;11.45;4.15;;;;;;;17.63;72.65;100185.41;20747318;28;20054;-67
2022/08/22 06:25:32;;;;;;;7.82;4.10;;;;;;;17.76;71.89;100185.69;20745670;28;20132;-67
2022/08/22 06:36:29;;;;;;;8.27;4.15;;;;;;;18.00;69.45;100193.34;20744619;28;20050;-66
2022/08/22 06:45:54;;;;;;;9.98;4.10;;;;;;;18.18;65.89;100203.03;20802034;28;20049;-67
2022/08/22 06:55:56;;;;;;;9.70;4.30;;;;;;;18.52;62.31;100191.56;20907067;28;20068;-66
2022/08/22 07:05:57;;;;;;;10.90;4.43;;;;;;;18.64;62.88;100201.53;20906746;28;20053;-68
2022/08/22 07:15:58;;;;;;;10.10;3.80;;;;;;;18.87;61.21;100204.78;20864672;28;20502;-68
2022/08/22 07:26:00;;;;;;;8.25;4.05;;;;;;;19.35;58.52;100211.91;20871685;28;20060;-68
2022/08/22 07:36:02;;;;;;;8.55;3.75;;;;;;;19.69;59.66;100218.91;20869495;28;20460;-68
2022/08/22 07:46:04;;;;;;;6.65;4.00;;;;;;;20.13;57.24;100218.16;20860602;28;20045;-68
2022/08/22 07:56:05;;;;;;;10.63;4.20;;;;;;;20.57;57.22;100211.19;20838098;28;20045;-69
2022/08/22 08:06:07;;;;;;;8.20;3.95;;;;;;;20.52;56.51;100213.28;20890983;28;20057;-68
2022/08/22 08:16:08;;;;;;;7.07;3.33;;;;;;;20.58;57.90;100212.88;20901805;28;20053;-68
2022/08/22 08:26:09;;;;;;;7.30;3.60;;;;;;;21.18;56.33;100208.28;20900758;28;20045;-68
2022/08/22 08:36:11;;;;;;;8.50;3.72;;;;;;;21.44;55.48;100208.47;20900115;28;20055;-68
2022/08/22 08:46:13;;;;;;;9.02;3.85;;;;;;;21.68;54.15;100200.69;20854333;28;20053;-69
2022/08/22 08:56:14;;;;;;;10.63;4.05;;;;;;;22.04;53.28;100186.78;20816231;28;20504;-68
2022/08/22 09:06:20;;;;;;;6.32;3.53;;;;;;;22.45;50.81;100201.81;20816683;28;20099;-67
2022/08/22 09:16:23;;;;;;;8.60;3.75;;;;;;;23.04;49.19;100194.16;20815853;28;20080;-67
2022/08/22 09:26:27;;;;;;;9.38;3.83;;;;;;;23.66;45.43;100202.16;20816354;28;20162;-68
2022/08/22 09:36:29;;;;;;;9.65;3.85;;;;;;;23.93;45.72;100193.06;20814467;28;20085;-68
2022/08/22 09:46:32;;;;;;;10.43;4.10;;;;;;;24.47;41.50;100188.06;20815218;28;20049;-68
2022/08/22 09:56:37;;;;;;;9.38;3.20;;;;;;;24.60;40.58;100171.91;20814528;28;20057;-68
2022/08/22 10:06:38;;;;;;;8.43;3.13;;;;;;;25.02;40.34;100172.19;20816569;28;20049;-68
2022/08/22 10:16:40;;;;;;;6.45;3.03;;;;;;;25.50;40.05;100162.03;20828199;28;20116;-68
2022/08/22 10:26:41;;;;;;;8.90;3.22;;;;;;;25.91;39.47;100154.25;20826223;28;20050;-68
2022/08/22 10:36:43;;;;;;;8.07;3.35;;;;;;;26.28;38.48;100150.16;20803062;28;20460;-68
2022/08/22 10:46:44;;;;;;;6.80;3.03;;;;;;;26.57;37.30;100128.06;20744211;28;20402;-67
2022/08/22 10:56:46;;;;;;;5.85;3.10;;;;;;;26.71;36.17;100130.38;20744091;28;20054;-68
2022/08/22 11:06:47;;;;;;;6.50;3.40;;;;;;;27.20;35.04;100109.09;20803017;28;20053;-68
2022/08/22 11:16:49;;;;;;;5.63;3.05;;;;;;;27.09;32.42;100099.31;20824979;28;20409;-68
2022/08/22 11:26:55;;;;;;;7.57;3.38;;;;;;;27.35;32.74;100096.94;20823450;28;20073;-69
2022/08/22 11:36:57;;;;;;;5.82;2.40;;;;;;;27.36;31.87;100083.38;20821939;28;20053;-68
2022/08/22 11:46:58;;;;;;;8.43;2.92;;;;;;;27.78;29.28;100075.06;20777247;28;20420;-69
2022/08/22 11:57:00;;;;;;;7.00;2.50;;;;;;;27.76;29.89;100066.28;20749187;28;20074;-68
2022/08/22 12:07:01;;;;;;;4.90;2.60;;;;;;;27.93;28.84;100061.16;20819185;28;20049;-70
2022/08/22 12:17:04;;;;;;;6.30;2.60;;;;;;;27.29;28.76;100058.03;20740857;28;20491;-70
2022/08/22 12:27:06;;;;;;;4.47;2.30;;;;;;;27.46;28.79;100052.97;20736627;28;20061;-68
2022/08/22 12:37:08;;;;;;;8.38;2.67;;;;;;;28.04;26.43;100043.03;20734813;28;20474;-70
2022/08/22 12:47:09;;;;;;;10.35;2.65;;;;;;;27.97;27.51;100032.97;20736559;28;20053;-68
2022/08/22 12:57:11;;;;;;;7.30;2.90;;;;;;;27.96;28.40;100024.06;20756942;28;20057;-68
2022/08/22 13:07:24;;;;;;;;;;;;;;;27.95;26.76;100021.53;20771582;28;20587;-68
2022/08/22 13:17:26;;;;;;;5.07;2.25;;;;;;;28.04;26.75;100010.72;20735070;28;20020;-69
2022/08/22 13:27:27;;;;;;;5.82;2.67;;;;;;;28.29;27.85;100003.84;20732703;28;20450;-68
2022/08/22 13:37:30;;;;;;;;;;;;;;;28.38;25.76;99997.59;20733912;28;20565;-68
2022/08/22 13:47:31;;;;;;;7.03;2.85;;;;;;;28.34;27.16;99995.34;20761938;23;20477;-79
2022/08/22 13:57:34;;;;;;;5.57;2.35;;;;;;;28.21;27.37;99990.25;20813180;28;20074;-80
2022/08/22 14:07:36;;;;;;;4.15;2.17;;;;;;;27.71;27.76;99987.84;20821158;28;20045;-80
2022/08/22 14:17:38;;;;;;;6.40;2.70;;;;;;;27.50;28.05;99984.44;20822683;28;20129;-80
2022/08/22 14:27:43;;;;;;;4.25;2.20;;;;;;;27.23;29.19;99972.56;20821319;28;20129;-79
2022/08/22 14:37:45;;;;;;;7.77;2.53;;;;;;;27.54;27.81;99962.50;20838533;28;20046;-80
2022/08/22 14:47:47;;;;;;;6.25;2.90;;;;;;;27.57;27.83;99951.47;20821059;28;20110;-80
2022/08/22 14:58:09;;;;;;;5.55;2.20;;;;;;;27.89;26.67;99946.75;20837413;28;20057;-79
2022/08/22 15:08:11;;;;;;;5.43;2.90;;;;;;;27.55;28.17;99936.47;20829805;28;20048;-79
2022/08/22 15:18:13;;;;;;;5.32;2.65;;;;;;;27.70;28.15;99932.34;20834251;28;20041;-78
2022/08/22 15:28:15;;;;;;;6.63;2.47;;;;;;;28.50;26.30;99925.53;20835229;28;20052;-79
2022/08/22 15:38:20;;;;;;;9.25;2.85;;;;;;;28.47;26.30;99931.22;20833485;28;20042;-80
2022/08/22 15:48:22;;;;;;;6.07;2.17;;;;;;;28.45;25.72;99926.97;20813010;28;20041;-79
2022/08/22 15:58:23;;;;;;;4.88;2.70;;;;;;;28.04;27.35;99907.59;20866285;23;20061;-80
2022/08/22 16:08:25;;;;;;;6.43;2.30;;;;;;;28.01;27.30;99908.75;20855776;28;20044;-80
2022/08/22 16:18:28;;;;;;;4.87;2.40;;;;;;;28.04;27.57;99904.91;20830488;28;20049;-79
2022/08/22 16:28:29;;;;;;;4.35;2.10;;;;;;;28.22;25.80;99900.44;20894829;28;20063;-79
2022/08/22 16:38:51;;;;;;;6.55;2.15;;;;;;;28.67;25.76;99898.78;20908328;28;20049;-79
2022/08/22 16:48:53;;;;;;;6.13;2.63;;;;;;;28.69;25.11;99904.84;20890957;28;20083;-80
2022/08/22 16:58:54;;;;;;;6.67;2.20;;;;;;;28.57;24.57;99901.53;20938084;28;20072;-80
2022/08/22 17:09:11;;;;;;;4.45;2.30;;;;;;;28.53;25.67;99902.84;20951577;28;20045;-80
2022/08/22 17:19:13;;;;;;;;;;;;;;;28.41;27.02;99912.13;20855881;28;20069;-79
2022/08/22 17:29:14;;;;;;;4.88;2.15;;;;;;;28.06;28.47;99917.22;20893635;28;19948;-79
2022/08/22 17:39:15;;;;;;;5.15;2.78;;;;;;;27.91;26.62;99917.84;20864891;28;20113;-79
2022/08/22 17:49:17;;;;;;;4.80;2.28;;;;;;;27.28;29.91;99915.69;20880803;28;20120;-79
2022/08/22 17:59:18;;;;;;;7.53;2.70;;;;;;;26.31;32.84;99932.50;20864558;28;20545;-79
2022/08/22 18:09:21;;;;;;;6.82;2.70;;;;;;;25.61;34.31;99940.44;20882293;28;20042;-79
2022/08/22 18:19:22;;;;;;;6.32;2.30;;;;;;;25.11;35.65;99946.44;20947741;28;20501;-80
2022/08/22 18:29:24;;;;;;;6.05;2.85;;;;;;;24.63;37.03;99952.16;20911979;28;20061;-79
2022/08/22 18:39:25;;;;;;;5.75;2.65;;;;;;;24.26;37.79;99949.72;20874299;23;20136;-78
2022/08/22 18:49:29;;;;;;;6.05;2.75;;;;;;;23.82;39.04;99971.13;20836688;28;20045;-78
2022/08/22 18:59:30;;;;;;;5.53;2.50;;;;;;;23.49;39.14;99970.03;20848359;28;20049;-78
2022/08/22 19:09:31;;;;;;;7.18;2.55;;;;;;;23.17;38.89;99965.28;20815190;28;20486;-77
2022/08/22 19:22:17;;;;;;;7.90;2.92;;;;;;;22.89;40.31;99981.66;20852655;28;20049;-78
2022/08/22 19:29:54;;;;;;;7.25;2.70;;;;;;;22.48;42.42;100002.34;20808015;28;20065;-78
2022/08/22 19:39:55;;;;;;;6.43;2.88;;;;;;;22.32;42.57;100003.53;20743540;28;20049;-78
2022/08/22 19:49:57;;;;;;;7.68;2.88;;;;;;;22.09;42.98;100002.47;20745065;28;20518;-78
2022/08/22 19:59:59;;;;;;;5.10;2.72;;;;;;;22.01;43.99;100003.00;20743731;28;20128;-76
2022/08/22 20:10:01;;;;;;;6.78;3.00;;;;;;;21.74;45.42;100014.59;20752718;28;20045;-76
2022/08/22 20:20:02;;;;;;;7.65;3.10;;;;;;;21.57;45.95;100017.56;20907687;28;20061;-76
2022/08/22 20:30:19;;;;;;;6.13;2.80;;;;;;;21.05;49.34;100023.66;20905592;28;20044;-76
2022/08/22 20:40:34;;;;;;;5.30;2.70;;;;;;;20.88;49.65;100026.53;20905635;28;20517;-76
2022/08/22 20:50:56;;;;;;;5.30;2.60;;;;;;;20.51;51.39;100028.91;20905195;28;20102;-76
2022/08/22 21:01:00;;;;;;;7.82;3.10;;;;;;;20.45;52.56;100018.59;20904008;28;20394;-77
2022/08/22 21:21:23;;;;;;;4.90;2.53;;;;;;;20.12;54.14;100035.69;20823486;28;20049;-78
2022/08/22 21:31:24;;;;;;;6.95;3.22;;;;;;;19.40;57.36;100041.72;20808151;28;20449;-78
2022/08/22 21:41:26;;;;;;;9.38;3.63;;;;;;;19.60;56.70;100044.13;20807273;28;20049;-76
2022/08/22 21:51:27;;;;;;;8.23;3.08;;;;;;;19.76;55.67;100053.84;20806511;28;20638;-78
2022/08/22 22:01:29;;;;;;;6.95;3.30;;;;;;;19.54;58.31;100047.09;20824125;28;20064;-78
2022/08/22 22:11:31;;;;;;;7.60;2.90;;;;;;;19.62;58.25;100055.50;20820907;28;20049;-75
2022/08/22 22:21:34;;;;;;;7.97;3.20;;;;;;;19.36;59.51;100061.47;20837979;28;20051;-78
2022/08/22 22:31:35;;;;;;;6.88;3.25;;;;;;;19.35;59.79;100070.34;20819380;28;20095;-78
2022/08/22 22:41:36;;;;;;;6.65;3.03;;;;;;;19.13;61.53;100066.25;20838032;28;20049;-78
2022/08/22 22:51:38;;;;;;;6.60;3.63;;;;;;;18.99;63.14;100076.78;20836143;23;20053;-69
2022/08/22 23:01:39;;;;;;;5.70;3.47;;;;;;;18.78;64.00;100080.63;20827021;28;20049;-72
2022/08/22 23:11:41;;;;;;;7.47;3.00;;;;;;;18.50;66.39;100087.41;20826204;28;20053;-71
2022/08/22 23:21:42;;;;;;;8.02;3.75;;;;;;;18.02;70.01;100094.34;20825587;28;20049;-70
2022/08/22 23:31:43;;;;;;;7.68;3.83;;;;;;;17.83;71.04;100109.44;20824443;28;20053;-70
2022/08/22 23:41:45;;;;;;;6.32;3.38;;;;;;;17.88;71.23;100110.94;20823690;28;20522;-71
2022/08/22 23:51:46;;;;;;;7.05;3.88;;;;;;;17.68;72.28;100114.53;20823434;28;20057;-72
